Terminal Aerodrome Forecast
Issued by NWS

Home | Current Version | Previous Version | Text Only | Print | Product List | Glossary On
Versions: 1 2 3 4 5 6 7 8 9 10 11 12 13 14 15 16 17 18 19 20 21 22 23 24 25 26 27 28 29 30
000
FTUS41 KRNK 201301 AAL
TAFBCB
TAF AMD
KBCB 201301Z 2013/2112 VRB03KT 2SM BR SCT150
     FM201400 VRB03KT P6SM SCT150
     FM210000 00000KT P6SM SCT250
     FM210800 VRB01KT 3SM BR SCT250
     FM211000 00000KT 1/2SM FG OVC001=

USA.gov is the U.S. government's official web portal to all federal, state and local government web resources and services.